createdAt,value
2018-11-21T00:01:11.731Z,20.63
2018-11-21T00:03:37.661Z,20.62
2018-11-21T00:06:03.595Z,20.62
2018-11-21T00:08:29.543Z,20.59
2018-11-21T00:10:55.475Z,20.60
2018-11-21T00:13:21.426Z,20.61
2018-11-21T00:15:47.369Z,20.58
2018-11-21T00:18:13.308Z,20.58
2018-11-21T00:20:39.241Z,20.58
2018-11-21T00:23:05.222Z,20.57
2018-11-21T00:25:31.161Z,20.56
2018-11-21T00:27:57.102Z,20.55
2018-11-21T00:30:23.072Z,20.55
2018-11-21T00:32:49.014Z,20.54
2018-11-21T00:35:15.037Z,20.53
2018-11-21T00:37:40.964Z,20.54
2018-11-21T00:40:06.885Z,20.54
2018-11-21T00:42:32.805Z,20.53
2018-11-21T00:44:58.732Z,20.54
2018-11-21T00:47:24.667Z,20.54
2018-11-21T00:49:50.618Z,20.55
2018-11-21T00:52:16.554Z,20.53
2018-11-21T00:54:42.578Z,20.53
2018-11-21T00:57:08.551Z,20.53
2018-11-21T00:59:34.520Z,20.53
2018-11-21T01:02:00.456Z,20.52
2018-11-21T01:04:26.471Z,20.51
2018-11-21T01:06:52.402Z,20.52
2018-11-21T01:09:18.364Z,20.50
2018-11-21T01:11:44.345Z,20.49
2018-11-21T01:14:10.267Z,20.48
2018-11-21T01:16:36.207Z,20.47
2018-11-21T01:19:02.145Z,20.48
2018-11-21T01:21:28.102Z,20.46
2018-11-21T01:23:54.029Z,20.47
2018-11-21T01:26:19.989Z,20.47
2018-11-21T01:28:45.910Z,20.48
2018-11-21T01:31:11.887Z,20.49
2018-11-21T01:33:37.913Z,20.49
2018-11-21T01:36:03.931Z,20.48
2018-11-21T01:38:29.855Z,20.47
2018-11-21T01:40:55.822Z,20.46
2018-11-21T01:43:21.808Z,20.45
2018-11-21T01:45:47.754Z,20.44
2018-11-21T01:48:13.681Z,20.42
2018-11-21T01:50:39.611Z,20.44
2018-11-21T01:53:06.508Z,20.44
2018-11-21T01:55:32.591Z,20.42
2018-11-21T01:57:58.527Z,20.43
2018-11-21T02:00:24.465Z,20.43
2018-11-21T02:02:50.663Z,20.42
2018-11-21T02:05:16.599Z,20.41
2018-11-21T02:07:42.542Z,20.41
2018-11-21T02:10:08.531Z,20.42
2018-11-21T02:12:34.488Z,20.44
2018-11-21T02:15:00.380Z,20.47
2018-11-21T02:17:26.446Z,20.47
2018-11-21T02:19:52.357Z,20.51
2018-11-21T02:22:18.304Z,20.51
2018-11-21T02:24:44.314Z,20.52
2018-11-21T02:27:10.258Z,20.51
2018-11-21T02:29:36.200Z,20.50
2018-11-21T02:32:02.158Z,20.50
2018-11-21T02:34:28.086Z,20.50
2018-11-21T02:36:54.042Z,20.51
2018-11-21T02:39:20.186Z,20.51
2018-11-21T02:41:46.116Z,20.48
2018-11-21T02:44:12.049Z,20.45
2018-11-21T02:46:38.127Z,20.45
2018-11-21T02:49:04.103Z,20.45
2018-11-21T02:51:30.020Z,20.44
2018-11-21T02:53:55.956Z,20.45
2018-11-21T02:56:21.893Z,20.46
2018-11-21T02:58:47.830Z,20.45
2018-11-21T03:01:13.801Z,20.47
2018-11-21T03:03:39.722Z,20.46
2018-11-21T03:06:05.656Z,20.47
2018-11-21T03:08:31.590Z,20.49
2018-11-21T03:10:57.524Z,20.49
2018-11-21T03:13:28.294Z,20.46
2018-11-21T03:15:49.384Z,20.46
2018-11-21T03:18:15.409Z,20.45
2018-11-21T03:20:41.334Z,20.43
2018-11-21T03:23:07.257Z,20.43
2018-11-21T03:25:33.185Z,20.42
2018-11-21T03:27:59.154Z,20.41
2018-11-21T03:30:25.084Z,20.42
2018-11-21T03:32:51.034Z,20.43
2018-11-21T03:35:16.958Z,20.42
2018-11-21T03:37:42.917Z,20.42
2018-11-21T03:40:08.853Z,20.42
2018-11-21T03:42:34.812Z,20.45
2018-11-21T03:45:00.738Z,20.45
2018-11-21T03:47:26.681Z,20.46
2018-11-21T03:49:52.611Z,20.48
2018-11-21T03:52:18.534Z,20.50
2018-11-21T03:54:44.639Z,20.52
2018-11-21T03:57:10.555Z,20.52
2018-11-21T03:59:36.505Z,20.51
2018-11-21T04:02:02.604Z,20.51
2018-11-21T04:04:28.555Z,20.51
2018-11-21T04:06:54.562Z,20.51
2018-11-21T04:09:20.509Z,20.51
2018-11-21T04:11:46.431Z,20.50
2018-11-21T04:14:12.442Z,20.51
2018-11-21T04:16:38.380Z,20.52
2018-11-21T04:19:04.297Z,20.53
2018-11-21T04:21:30.243Z,20.53
2018-11-21T04:23:56.355Z,20.52
2018-11-21T04:26:22.271Z,20.52
2018-11-21T04:28:48.201Z,20.53
2018-11-21T04:31:14.138Z,20.55
2018-11-21T04:33:40.083Z,20.57
2018-11-21T04:36:06.005Z,20.59
2018-11-21T04:38:31.949Z,20.60
2018-11-21T04:40:57.873Z,20.59
2018-11-21T04:43:23.893Z,20.59
2018-11-21T04:45:49.814Z,20.59
2018-11-21T04:48:15.743Z,20.60
2018-11-21T04:50:41.661Z,20.58
2018-11-21T04:53:07.671Z,20.57
2018-11-21T04:55:33.605Z,20.56
2018-11-21T04:57:59.552Z,20.55
2018-11-21T05:00:25.481Z,20.55
2018-11-21T05:02:51.418Z,20.57
2018-11-21T05:05:17.342Z,20.55
2018-11-21T05:07:43.280Z,20.56
2018-11-21T05:10:09.274Z,20.57
2018-11-21T05:12:35.204Z,20.58
2018-11-21T05:15:01.123Z,20.60
2018-11-21T05:17:27.083Z,20.60
2018-11-21T05:19:53.086Z,20.60
2018-11-21T05:22:19.050Z,20.61
2018-11-21T05:24:44.975Z,20.63
2018-11-21T05:27:10.909Z,20.64
2018-11-21T05:29:36.844Z,20.66
2018-11-21T05:32:02.791Z,20.67
2018-11-21T05:34:28.750Z,20.64
2018-11-21T05:36:54.677Z,20.62
2018-11-21T05:39:20.694Z,20.62
2018-11-21T05:41:46.622Z,20.60
2018-11-21T05:44:12.568Z,20.60
2018-11-21T05:46:38.525Z,20.58
2018-11-21T05:49:04.472Z,20.57
2018-11-21T05:51:30.445Z,20.58
2018-11-21T05:53:56.508Z,20.58
2018-11-21T05:56:22.438Z,20.57
2018-11-21T05:58:48.421Z,20.58
2018-11-21T06:01:14.392Z,20.59
2018-11-21T06:03:40.318Z,20.58
2018-11-21T06:06:09.896Z,20.57
2018-11-21T06:08:32.245Z,20.61
2018-11-21T06:10:58.188Z,20.63
2018-11-21T06:13:24.187Z,20.64
2018-11-21T06:15:50.172Z,20.64
2018-11-21T06:18:16.140Z,20.63
2018-11-21T06:20:42.155Z,20.65
2018-11-21T06:23:08.087Z,20.66
2018-11-21T06:25:34.025Z,20.65
2018-11-21T06:27:59.969Z,20.63
2018-11-21T06:30:25.909Z,20.62
2018-11-21T06:32:51.869Z,20.61
2018-11-21T06:35:17.792Z,20.60
2018-11-21T06:37:43.717Z,20.58
2018-11-21T06:40:10.249Z,20.59
2018-11-21T06:42:36.260Z,20.59
2018-11-21T06:45:02.183Z,20.57
2018-11-21T06:47:28.194Z,20.57
2018-11-21T06:49:54.135Z,20.58
2018-11-21T06:52:22.209Z,20.57
2018-11-21T06:54:46.097Z,20.59
2018-11-21T06:57:12.027Z,20.61
2018-11-21T06:59:38.067Z,20.62
2018-11-21T07:02:04.051Z,20.65
2018-11-21T07:04:30.001Z,20.64
2018-11-21T07:06:56.010Z,20.64
2018-11-21T07:09:22.220Z,20.65
2018-11-21T07:11:48.188Z,20.64
2018-11-21T07:14:14.190Z,20.63
2018-11-21T07:16:40.143Z,20.63
2018-11-21T07:19:06.068Z,20.63
2018-11-21T07:21:32.070Z,20.61
2018-11-21T07:23:58.033Z,20.62
2018-11-21T07:26:24.031Z,20.60
2018-11-21T07:28:49.948Z,20.58
2018-11-21T07:31:15.905Z,20.59
2018-11-21T07:33:46.550Z,20.60
2018-11-21T07:36:07.884Z,20.60
2018-11-21T07:38:33.822Z,20.63
2018-11-21T07:40:59.769Z,20.63
2018-11-21T07:43:25.735Z,20.64
2018-11-21T07:45:51.661Z,20.68
2018-11-21T07:48:20.593Z,20.68
2018-11-21T07:50:43.523Z,20.68
2018-11-21T07:53:09.456Z,20.69
2018-11-21T07:55:35.397Z,20.72
2018-11-21T07:58:02.423Z,20.69
2018-11-21T08:00:28.359Z,20.69
2018-11-21T08:02:54.277Z,20.68
2018-11-21T08:05:20.200Z,20.68
2018-11-21T08:07:46.247Z,20.68
2018-11-21T08:10:12.184Z,20.69
2018-11-21T08:12:38.164Z,20.70
2018-11-21T08:15:04.051Z,20.71
2018-11-21T08:17:29.972Z,20.69
2018-11-21T08:19:55.933Z,20.71
2018-11-21T08:22:21.937Z,20.70
2018-11-21T08:24:47.901Z,20.70
2018-11-21T08:27:13.828Z,20.68
2018-11-21T08:29:39.795Z,20.68
2018-11-21T08:32:05.731Z,20.70
2018-11-21T08:34:31.659Z,20.73
2018-11-21T08:36:57.629Z,20.75
2018-11-21T08:39:23.559Z,20.76
2018-11-21T08:41:49.471Z,20.78
2018-11-21T08:44:15.432Z,20.79
2018-11-21T08:46:41.360Z,20.82
2018-11-21T08:49:07.311Z,20.85
2018-11-21T08:51:33.245Z,20.83
2018-11-21T08:53:59.258Z,20.84
2018-11-21T08:56:25.357Z,20.86
2018-11-21T08:58:51.282Z,20.88
2018-11-21T09:01:17.210Z,20.89
2018-11-21T09:03:43.212Z,20.90
2018-11-21T09:06:09.147Z,20.94
2018-11-21T09:08:35.076Z,20.95
2018-11-21T09:11:01.258Z,20.94
2018-11-21T09:13:27.330Z,20.94
2018-11-21T09:15:53.503Z,20.94
2018-11-21T09:18:19.215Z,20.97
2018-11-21T09:20:45.292Z,21.00
2018-11-21T09:23:11.286Z,21.02
2018-11-21T09:25:37.165Z,21.04
2018-11-21T09:28:03.341Z,21.05
2018-11-21T09:30:29.277Z,21.08
2018-11-21T09:32:55.307Z,21.08
2018-11-21T09:35:21.260Z,21.09
2018-11-21T09:37:47.484Z,21.09
2018-11-21T09:40:13.434Z,21.08
2018-11-21T09:42:39.433Z,21.09
2018-11-21T09:45:05.472Z,21.09
2018-11-21T09:47:31.411Z,21.08
2018-11-21T09:49:57.398Z,21.08
2018-11-21T09:52:23.448Z,21.07
2018-11-21T09:54:49.377Z,21.05
2018-11-21T09:57:15.399Z,21.03
2018-11-21T09:59:41.436Z,21.01
2018-11-21T10:02:07.365Z,20.99
2018-11-21T10:04:33.293Z,20.97
2018-11-21T10:06:59.230Z,20.96
2018-11-21T10:09:25.173Z,20.98
2018-11-21T10:11:51.137Z,20.97
2018-11-21T10:14:17.066Z,20.98
2018-11-21T10:16:43.029Z,20.97
2018-11-21T10:19:08.987Z,20.98
2018-11-21T10:21:34.962Z,20.99
2018-11-21T10:24:01.393Z,20.99
2018-11-21T10:26:27.450Z,21.00
2018-11-21T10:28:53.478Z,20.98
2018-11-21T10:31:19.491Z,21.00
2018-11-21T10:33:45.540Z,21.00
2018-11-21T10:36:11.483Z,21.01
2018-11-21T10:38:37.450Z,21.03
2018-11-21T10:41:03.410Z,21.01
2018-11-21T10:43:29.323Z,20.98
2018-11-21T10:45:55.313Z,20.99
2018-11-21T10:48:21.419Z,21.00
2018-11-21T10:50:47.479Z,20.97
2018-11-21T10:53:13.443Z,20.97
2018-11-21T10:55:39.412Z,20.98
2018-11-21T10:58:05.337Z,20.98
2018-11-21T11:00:31.278Z,21.00
2018-11-21T11:02:57.208Z,21.00
2018-11-21T11:05:23.125Z,21.00
2018-11-21T11:07:49.056Z,21.00
2018-11-21T11:10:15.048Z,21.01
2018-11-21T11:12:41.004Z,21.00
2018-11-21T11:15:06.941Z,21.02
2018-11-21T11:17:32.894Z,21.02
2018-11-21T11:19:58.823Z,21.03
2018-11-21T11:22:24.757Z,21.02
2018-11-21T11:24:50.899Z,21.02
2018-11-21T11:27:16.823Z,21.01
2018-11-21T11:29:42.796Z,21.03
2018-11-21T11:32:08.773Z,21.03
2018-11-21T11:34:34.708Z,21.04
2018-11-21T11:37:00.626Z,21.06
2018-11-21T11:39:26.579Z,21.08
2018-11-21T11:41:52.515Z,21.07
2018-11-21T11:44:18.470Z,21.10
2018-11-21T11:46:44.436Z,21.12
2018-11-21T11:49:10.356Z,21.12
2018-11-21T11:51:36.289Z,21.13
2018-11-21T11:54:02.247Z,21.12
2018-11-21T11:56:28.271Z,21.10
2018-11-21T11:58:54.201Z,21.08
2018-11-21T12:01:20.133Z,21.05
2018-11-21T12:03:46.052Z,21.03
2018-11-21T12:06:12.068Z,21.02
2018-11-21T12:08:38.009Z,21.00
2018-11-21T12:11:03.941Z,21.00
2018-11-21T12:13:29.939Z,20.98
2018-11-21T12:15:55.904Z,20.95
2018-11-21T12:18:21.835Z,20.93
2018-11-21T12:20:47.780Z,20.91
2018-11-21T12:23:13.707Z,20.90
2018-11-21T12:25:39.701Z,20.90
2018-11-21T12:28:05.737Z,20.88
2018-11-21T12:30:31.743Z,20.86
2018-11-21T12:32:57.686Z,20.90
2018-11-21T12:35:23.792Z,20.91
2018-11-21T12:37:49.718Z,20.92
2018-11-21T12:40:15.646Z,20.92
2018-11-21T12:42:41.625Z,20.91
2018-11-21T12:45:07.602Z,20.90
2018-11-21T12:47:33.557Z,20.89
2018-11-21T12:49:59.531Z,20.88
2018-11-21T12:52:25.465Z,20.87
2018-11-21T12:54:51.457Z,20.86
2018-11-21T12:57:17.407Z,20.87
2018-11-21T12:59:44.719Z,20.86
2018-11-21T13:02:09.332Z,20.85
2018-11-21T13:04:35.348Z,20.84
2018-11-21T13:07:01.832Z,20.85
2018-11-21T13:09:27.758Z,20.84
2018-11-21T13:11:53.694Z,20.85
2018-11-21T13:14:20.670Z,20.86
2018-11-21T13:16:46.629Z,20.87
2018-11-21T13:19:12.575Z,20.89
2018-11-21T13:21:41.385Z,20.88
2018-11-21T13:24:07.322Z,20.89
2018-11-21T13:26:33.254Z,20.88
2018-11-21T13:28:59.203Z,20.86
2018-11-21T13:31:25.144Z,20.85
2018-11-21T13:33:51.105Z,20.84
2018-11-21T13:36:17.126Z,20.84
2018-11-21T13:38:43.115Z,20.84
2018-11-21T13:41:09.050Z,20.84
2018-11-21T13:43:34.987Z,20.83
2018-11-21T13:46:01.035Z,20.85
2018-11-21T13:48:27.029Z,20.86
2018-11-21T13:50:53.076Z,20.89
2018-11-21T13:53:19.012Z,20.91
2018-11-21T13:55:44.948Z,20.91
2018-11-21T13:58:10.870Z,20.92
2018-11-21T14:00:36.801Z,20.94
2018-11-21T14:03:02.731Z,20.96
2018-11-21T14:05:28.674Z,20.98
2018-11-21T14:07:54.607Z,21.02
2018-11-21T14:10:20.567Z,21.03
2018-11-21T14:12:46.495Z,21.03
2018-11-21T14:15:12.426Z,21.03
2018-11-21T14:17:38.442Z,21.05
2018-11-21T14:20:04.377Z,21.04
2018-11-21T14:22:30.303Z,21.05
2018-11-21T14:24:56.258Z,21.06
2018-11-21T14:27:22.193Z,21.05
2018-11-21T14:29:48.146Z,21.06
2018-11-21T14:32:14.055Z,21.01
2018-11-21T14:34:40.100Z,21.01
2018-11-21T14:37:06.098Z,21.00
2018-11-21T14:39:32.146Z,20.98
2018-11-21T14:41:58.122Z,20.96
2018-11-21T14:44:24.074Z,20.94
2018-11-21T14:46:50.113Z,20.95
2018-11-21T14:49:16.037Z,20.97
2018-11-21T14:51:41.995Z,21.00
2018-11-21T14:54:07.962Z,21.04
2018-11-21T14:56:33.947Z,21.08
2018-11-21T14:58:59.886Z,21.08
2018-11-21T15:01:25.859Z,21.08
2018-11-21T15:03:51.810Z,21.07
2018-11-21T15:06:17.819Z,21.05
2018-11-21T15:08:43.774Z,21.07
2018-11-21T15:11:09.712Z,21.07
2018-11-21T15:13:35.628Z,21.07
2018-11-21T15:16:01.581Z,21.07
2018-11-21T15:18:27.501Z,21.07
2018-11-21T15:20:53.457Z,21.07
2018-11-21T15:23:19.386Z,21.07
2018-11-21T15:25:45.340Z,21.05
2018-11-21T15:28:11.276Z,21.03
2018-11-21T15:30:37.216Z,21.01
2018-11-21T15:33:03.192Z,21.01
2018-11-21T15:35:29.127Z,20.98
2018-11-21T15:37:55.057Z,20.97
2018-11-21T15:40:20.977Z,20.98
2018-11-21T15:42:46.916Z,20.99
2018-11-21T15:45:12.987Z,20.98
2018-11-21T15:47:38.879Z,20.96
2018-11-21T15:50:04.828Z,20.95
2018-11-21T15:52:30.846Z,20.95
2018-11-21T15:54:56.922Z,20.95
2018-11-21T15:57:22.851Z,20.94
2018-11-21T15:59:48.836Z,20.92
2018-11-21T16:02:14.829Z,20.92
2018-11-21T16:04:44.321Z,20.90
2018-11-21T16:07:06.687Z,20.90
2018-11-21T16:09:32.627Z,20.88
2018-11-21T16:11:58.556Z,20.88
2018-11-21T16:14:24.600Z,20.89
2018-11-21T16:16:50.547Z,20.91
2018-11-21T16:19:16.497Z,20.89
2018-11-21T16:21:42.470Z,20.90
2018-11-21T16:24:08.494Z,20.90
2018-11-21T16:26:34.462Z,20.94
2018-11-21T16:29:00.415Z,20.93
2018-11-21T16:31:26.355Z,20.93
2018-11-21T16:33:52.353Z,20.94
2018-11-21T16:36:18.319Z,20.93
2018-11-21T16:38:44.244Z,20.91
2018-11-21T16:41:10.160Z,20.90
2018-11-21T16:43:36.086Z,20.90
2018-11-21T16:46:02.000Z,20.89
2018-11-21T16:48:27.963Z,20.89
2018-11-21T16:50:53.897Z,20.88
2018-11-21T16:53:19.845Z,20.88
2018-11-21T16:55:45.884Z,20.89
2018-11-21T16:58:11.828Z,20.88
2018-11-21T17:00:37.804Z,20.89
2018-11-21T17:03:03.733Z,20.87
2018-11-21T17:05:29.690Z,20.86
2018-11-21T17:07:55.632Z,20.88
2018-11-21T17:10:21.575Z,20.88
2018-11-21T17:12:47.503Z,20.92
2018-11-21T17:15:13.634Z,20.92
2018-11-21T17:17:39.522Z,20.93
2018-11-21T17:20:05.544Z,20.93
2018-11-21T17:22:31.485Z,20.92
2018-11-21T17:24:57.409Z,20.90
2018-11-21T17:27:23.368Z,20.92
2018-11-21T17:29:53.808Z,20.90
2018-11-21T17:32:15.248Z,20.86
2018-11-21T17:34:41.220Z,20.88
2018-11-21T17:37:07.183Z,20.88
2018-11-21T17:39:33.111Z,20.87
2018-11-21T17:41:59.054Z,20.87
2018-11-21T17:44:24.981Z,20.89
2018-11-21T17:46:51.938Z,20.88
2018-11-21T17:49:18.016Z,20.89
2018-11-21T17:51:44.006Z,20.89
2018-11-21T17:54:10.062Z,20.88
2018-11-21T17:56:36.034Z,20.87
2018-11-21T17:59:02.056Z,20.88
2018-11-21T18:01:28.080Z,20.91
2018-11-21T18:03:54.080Z,20.92
2018-11-21T18:06:20.104Z,20.93
2018-11-21T18:08:46.175Z,20.91
2018-11-21T18:11:12.130Z,20.90
2018-11-21T18:13:38.167Z,20.89
2018-11-21T18:16:04.211Z,20.89
2018-11-21T18:18:30.157Z,20.89
2018-11-21T18:20:56.161Z,20.87
2018-11-21T18:23:22.178Z,20.88
2018-11-21T18:25:48.110Z,20.88
2018-11-21T18:28:14.101Z,20.87
2018-11-21T18:30:40.057Z,20.87
2018-11-21T18:33:06.014Z,20.87
2018-11-21T18:35:35.446Z,20.87
2018-11-21T18:37:57.885Z,20.87
2018-11-21T18:40:23.837Z,20.87
2018-11-21T18:42:49.770Z,20.86
2018-11-21T18:45:15.716Z,20.85
2018-11-21T18:47:41.756Z,20.86
2018-11-21T18:50:11.123Z,20.89
2018-11-21T18:52:33.643Z,20.91
2018-11-21T18:54:59.668Z,20.91
2018-11-21T18:57:25.618Z,20.91
2018-11-21T18:59:51.554Z,20.88
2018-11-21T19:02:17.516Z,20.88
2018-11-21T19:04:43.553Z,20.87
2018-11-21T19:07:09.640Z,20.87
2018-11-21T19:09:35.561Z,20.86
2018-11-21T19:12:01.512Z,20.88
2018-11-21T19:14:27.443Z,20.88
2018-11-21T19:16:53.423Z,20.87
2018-11-21T19:19:19.432Z,20.86
2018-11-21T19:21:45.376Z,20.85
2018-11-21T19:24:11.310Z,20.85
2018-11-21T19:26:37.265Z,20.86
2018-11-21T19:29:03.256Z,20.85
2018-11-21T19:31:29.765Z,20.86
2018-11-21T19:33:55.119Z,20.85
2018-11-21T19:36:21.159Z,20.87
2018-11-21T19:38:47.090Z,20.88
2018-11-21T19:41:13.056Z,20.89
2018-11-21T19:43:39.021Z,20.88
2018-11-21T19:46:04.965Z,20.88
2018-11-21T19:48:30.958Z,20.89
2018-11-21T19:50:57.015Z,20.88
2018-11-21T19:53:22.964Z,20.88
2018-11-21T19:55:48.942Z,20.88
2018-11-21T19:58:14.980Z,20.88
2018-11-21T20:00:40.899Z,20.88
2018-11-21T20:03:06.913Z,20.87
2018-11-21T20:05:32.863Z,20.86
2018-11-21T20:07:58.808Z,20.86
2018-11-21T20:10:24.812Z,20.85
2018-11-21T20:12:50.795Z,20.86
2018-11-21T20:15:16.743Z,20.86
2018-11-21T20:17:42.738Z,20.87
2018-11-21T20:20:08.701Z,20.86
2018-11-21T20:22:34.751Z,20.85
2018-11-21T20:25:00.700Z,20.87
2018-11-21T20:27:26.732Z,20.90
2018-11-21T20:29:54.709Z,20.89
2018-11-21T20:32:18.622Z,20.88
2018-11-21T20:34:44.574Z,20.89
2018-11-21T20:37:10.513Z,20.87
2018-11-21T20:39:36.539Z,20.86
2018-11-21T20:42:02.494Z,20.87
2018-11-21T20:44:28.441Z,20.87
2018-11-21T20:46:54.377Z,20.87
2018-11-21T20:49:20.322Z,20.87
2018-11-21T20:51:46.294Z,20.84
2018-11-21T20:54:12.237Z,20.83
2018-11-21T20:56:38.204Z,20.83
2018-11-21T20:59:04.134Z,20.80
2018-11-21T21:01:30.077Z,20.79
2018-11-21T21:03:56.011Z,20.79
2018-11-21T21:06:21.966Z,20.78
2018-11-21T21:08:47.900Z,20.81
2018-11-21T21:11:13.826Z,20.81
2018-11-21T21:13:39.768Z,20.86
2018-11-21T21:16:05.755Z,20.87
